Happy Valentine's Day! 

Flight Track Log - Related Links

Times and Time Zones

All times are in EDT time to prevent confusion due to time zone crossing. See the ASH3770 flight status page for this flight to view local times or setup timezone preferences in your user account.


Time Position Orientation Groundspeed Altitude Reporting Facility
EDT Latitude Longitude Course Direction KTS MPH feet Rate Location/Type
Sun 06:38:58 PM 40.5153 -80.3619 283° West 175 201 5,200  Level Cleveland Center
Sun 06:39:58 PM 40.5319 -80.4464 285° West 214 246 8,500 2,800 Climbing Cleveland Center
Sun 06:40:00 PM 40.5525 -80.5790 285° West  Level FlightAware Approximate
Sun 06:40:58 PM 40.5528 -80.5339 287° West 238 274 10,800  Level Cleveland Center
Sun 06:41:00 PM 40.5766 -80.6996 285° West  Level FlightAware Approximate
Sun 06:41:58 PM 40.5736 -80.6322 286° West 261 300 12,100  Level Cleveland Center
Sun 06:42:00 PM 40.6074 -80.8174 291° West  Level FlightAware Approximate
Sun 06:42:58 PM 40.5967 -80.7361 286° West 282 325 14,500  Level Cleveland Center
Sun 06:43:00 PM 40.6342 -80.9370 288° West  Level FlightAware Approximate
Sun 06:43:58 PM 40.6192 -80.8483 285° West 304 350 17,100  Level Cleveland Center
Sun 06:44:58 PM 40.6439 -80.9581 287° West 309 356 19,300 2,300 Climbing Cleveland Center
Sun 06:45:58 PM 40.6664 -81.0839 283° West 309 356 21,700 2,000 Climbing Cleveland Center
Sun 06:46:58 PM 40.6889 -81.1911 286° West 316 364 23,300 1,450 Climbing Cleveland Center
Sun 06:47:58 PM 40.7131 -81.3036 286° West 321 369 24,600 1,150 Climbing Cleveland Center
Sun 06:48:58 PM 40.7375 -81.4106 287° West 321 369 25,600 1,200 Climbing Cleveland Center
Sun 06:49:58 PM 40.7594 -81.5317 283° West 331 381 27,000 1,200 Climbing Cleveland Center
Sun 06:50:58 PM 40.7814 -81.6553 283° West 346 398 28,000 1,100 Climbing Cleveland Center
Sun 06:51:58 PM 40.8050 -81.7819 284° West 351 404 29,200 1,100 Climbing Cleveland Center
Sun 06:52:58 PM 40.8286 -81.9086 284° West 357 411 30,200 950 Climbing Cleveland Center
Sun 06:53:58 PM 40.8519 -82.0517 282° West 357 411 31,100 1,150 Climbing Cleveland Center
Sun 06:54:58 PM 40.8772 -82.1814 284° West 357 411 32,500 900 Climbing Cleveland Center
Sun 06:55:58 PM 40.9003 -82.3111 283° West 362 417 32,900 700 Climbing Cleveland Center
Sun 06:56:58 PM 40.9233 -82.4436 283° West 372 428 33,900 550 Climbing Cleveland Center
Sun 06:57:58 PM 40.9481 -82.5844 283° West 377 434 34,000 50 Climbing Cleveland Center
Sun 06:58:58 PM 40.9725 -82.7283 283° West 393 452 34,000  Level Cleveland Center
Sun 06:59:58 PM 40.9989 -82.8778 283° West 409 471 34,000  Level Cleveland Center
Sun 07:00:58 PM 41.0189 -83.0133 281° West 415 478 34,000  Level Cleveland Center
Sun 07:01:58 PM 41.0528 -83.1742 286° West 415 478 34,000  Level Cleveland Center
Sun 07:02:58 PM 41.0747 -83.3100 282° West 415 478 34,000  Level Cleveland Center
Sun 07:03:58 PM 41.0978 -83.4764 280° West 420 483 34,000  Level Cleveland Center
Sun 07:04:58 PM 41.1253 -83.6236 284° West 415 478 34,000  Level Cleveland Center
Sun 07:05:58 PM 41.1481 -83.7764 281° West 415 478 34,000  Level Cleveland Center
Sun 07:06:58 PM 41.1753 -83.9242 284° West 415 478 34,000  Level Cleveland Center
Sun 07:07:58 PM 41.2000 -84.0744 282° West 415 478 34,000  Level Cleveland Center
Sun 07:08:51 PM 41.2178 -84.1861 282° West 413 475 34,000  Level Chicago Center
Sun 07:09:53 PM 41.2261 -84.3383 274° West 415 478 34,000  Level Chicago Center
Sun 07:10:55 PM 41.2300 -84.4906 272° West 413 475 34,000  Level Chicago Center
Sun 07:11:57 PM 41.2367 -84.6736 273° West 415 478 34,000  Level Chicago Center
Sun 07:12:59 PM 41.2433 -84.8261 273° West 413 475 34,000 -726 Level Chicago Center
Sun 07:14:01 PM 41.2619 -84.9744 280° West 409 471 32,500 -1,452 Descending Chicago Center
Sun 07:15:03 PM 41.2839 -85.1228 281° West 405 466 31,000 -1,452 Descending Chicago Center
Sun 07:16:05 PM 41.3058 -85.2719 281° West 409 471 29,500 -1,366 Descending Chicago Center
Sun 07:17:06 PM 41.3275 -85.4192 281° West 405 466 28,200 -1,317 Descending Chicago Center
Sun 07:18:08 PM 41.3486 -85.5636 281° West 398 458 26,800 -1,306 Descending Chicago Center
Sun 07:19:10 PM 41.3697 -85.7061 281° West 390 449 25,500 -871 Descending Chicago Center
Sun 07:20:12 PM 41.3939 -85.8747 281° West 386 444 25,000 -242 Descending Chicago Center
Sun 07:21:14 PM 41.4142 -86.0192 281° West 393 452 25,000 -194 Level Chicago Center
Sun 07:22:16 PM 41.4339 -86.1628 280° West 394 453 24,600 -968 Descending Chicago Center
Sun 07:23:18 PM 41.4544 -86.3094 281° West 400 460 23,000 -1,694 Descending Chicago Center
Sun 07:24:20 PM 41.4744 -86.4500 281° West 385 443 21,100 -2,000 Descending Chicago Center
Sun 07:25:21 PM 41.4928 -86.5822 281° West 368 423 18,900 -2,146 Descending Chicago Center
Sun 07:26:23 PM 41.5125 -86.7225 281° West 348 400 16,700 -2,129 Descending Chicago Center
Sun 07:27:25 PM 41.5292 -86.8450 280° West 339 390 14,500 -2,129 Descending Chicago Center
Sun 07:28:27 PM 41.5453 -86.9642 280° West 330 380 12,300 -1,210 Descending Chicago Center
Sun 07:29:29 PM 41.5594 -87.0822 279° West 326 375 12,000 -200 Descending Chicago Center
Sun 07:29:57 PM 41.5667 -87.1667 277° West 324 373 12,000 -273 Level Chicago TRACON
Sun 07:30:57 PM 41.6000 -87.2667 294° West 314 361 11,600 -625 Descending Chicago TRACON
Sun 07:31:33 PM 41.6275 -87.3161 307° West 316 364 11,000 -367 Descending Chicago Center
Sun 07:32:35 PM 41.6814 -87.4050 309° West 312 359 11,000  Level Chicago Center
Sun 07:33:37 PM 41.7364 -87.4950 309° West 315 362 11,000 -48 Level Chicago Center
Sun 07:34:39 PM 41.7900 -87.5811 310° West 305 351 10,900 -919 Descending Chicago Center
Sun 07:35:41 PM 41.8406 -87.6669 308° West 251 289 9,100 -1,443 Descending Chicago Center
Sun 07:35:58 PM 41.8500 -87.7000 291° West 256 295 9,000 -78 Descending Chicago TRACON
Sun 07:36:58 PM 41.8667 -87.7833 285° West 257 296 9,000  Level Chicago TRACON
Sun 07:37:58 PM 41.8833 -87.8833 283° West 257 296 9,000  Level Chicago TRACON
Sun 07:38:58 PM 41.9000 -87.9667 285° West 244 281 9,000 -650 Level Chicago TRACON
Sun 07:39:58 PM 41.9167 -88.0500 285° West 215 247 7,700 -1,450 Descending Chicago TRACON
Sun 07:40:58 PM 41.9000 -88.1167 251° West 197 227 6,100 -1,409 Descending Chicago TRACON
Sun 07:41:53 PM 41.9011 -88.1808 271° West 194 223 5,000 -569 Descending Chicago Center
Sun 07:42:54 PM 41.9100 -88.2308 283° West 184 212 5,000 -293 Level Chicago Center
Sun 07:43:56 PM 41.9522 -88.2108 19° North 184 212 4,400 -532 Descending Chicago Center
Sun 07:44:58 PM 41.9692 -88.1444 71° East 193 222 3,900 -484 Descending Chicago Center

Login

Don't have an account? Register now (free) for customized features, flight alerts, and more!